createdAt,value
2022-10-16T00:00:56.415Z,1006.54
2022-10-16T00:01:56.438Z,1006.58
2022-10-16T00:02:56.406Z,1006.60
2022-10-16T00:03:56.418Z,1006.58
2022-10-16T00:04:56.412Z,1006.59
2022-10-16T00:05:56.413Z,1006.61
2022-10-16T00:06:56.397Z,1006.63
2022-10-16T00:07:56.409Z,1006.69
2022-10-16T00:08:56.446Z,1006.69
2022-10-16T00:09:56.411Z,1006.75
2022-10-16T00:10:56.430Z,1006.73
2022-10-16T00:11:56.409Z,1006.71
2022-10-16T00:12:56.407Z,1006.70
2022-10-16T00:13:56.418Z,1006.71
2022-10-16T00:14:56.417Z,1006.66
2022-10-16T00:15:56.430Z,1006.69
2022-10-16T00:16:56.414Z,1006.70
2022-10-16T00:18:04.932Z,1006.66
2022-10-16T00:18:56.425Z,1006.68
2022-10-16T00:19:56.434Z,1006.67
2022-10-16T00:21:56.443Z,1006.65
2022-10-16T00:22:56.429Z,1006.68
2022-10-16T00:24:04.939Z,1006.74
2022-10-16T00:25:06.506Z,1006.71
2022-10-16T00:25:56.420Z,1006.73
2022-10-16T00:27:03.982Z,1006.75
2022-10-16T00:27:56.420Z,1006.79
2022-10-16T00:29:06.504Z,1006.81
2022-10-16T00:30:04.522Z,1006.82
2022-10-16T00:30:56.431Z,1006.85
2022-10-16T00:32:03.986Z,1006.83
2022-10-16T00:33:04.569Z,1006.86
2022-10-16T00:33:56.438Z,1006.88
2022-10-16T00:35:04.643Z,1006.81
2022-10-16T00:35:56.443Z,1006.86
2022-10-16T00:37:03.995Z,1006.88
2022-10-16T00:38:04.664Z,1006.89
2022-10-16T00:38:56.553Z,1006.89
2022-10-16T00:40:04.694Z,1006.91
2022-10-16T00:40:56.423Z,1006.90
2022-10-16T00:41:56.452Z,1006.91
2022-10-16T00:43:04.717Z,1006.89
2022-10-16T00:43:56.418Z,1006.87
2022-10-16T00:45:04.715Z,1006.86
2022-10-16T00:45:56.425Z,1006.87
2022-10-16T00:46:56.452Z,1006.87
2022-10-16T00:47:56.502Z,1006.86
2022-10-16T00:49:04.746Z,1006.81
2022-10-16T00:49:56.429Z,1006.84
2022-10-16T00:51:04.052Z,1006.86
2022-10-16T00:51:56.443Z,1006.87
2022-10-16T00:52:56.447Z,1006.90
2022-10-16T00:53:56.433Z,1006.91
2022-10-16T00:54:56.435Z,1006.92
2022-10-16T00:55:56.435Z,1006.95
2022-10-16T00:56:56.442Z,1006.95
2022-10-16T00:57:56.422Z,1006.97
2022-10-16T00:58:56.436Z,1006.97
2022-10-16T00:59:56.437Z,1006.95
2022-10-16T01:00:56.517Z,1006.98
2022-10-16T01:01:56.442Z,1006.97
2022-10-16T01:02:56.469Z,1006.95
2022-10-16T01:03:56.435Z,1006.94
2022-10-16T01:04:56.439Z,1006.96
2022-10-16T01:05:56.453Z,1006.94
2022-10-16T01:06:56.429Z,1007.01
2022-10-16T01:07:56.431Z,1006.96
2022-10-16T01:08:56.461Z,1006.98
2022-10-16T01:09:56.450Z,1006.94
2022-10-16T01:10:56.442Z,1006.91
2022-10-16T01:11:56.467Z,1006.94
2022-10-16T01:12:56.435Z,1006.93
2022-10-16T01:13:56.456Z,1006.92
2022-10-16T01:14:56.447Z,1006.96
2022-10-16T01:15:56.442Z,1006.95
2022-10-16T01:16:56.472Z,1006.96
2022-10-16T01:17:56.447Z,1007.01
2022-10-16T01:18:56.473Z,1007.04
2022-10-16T01:19:56.451Z,1007.03
2022-10-16T01:20:56.447Z,1007.01
2022-10-16T01:21:56.457Z,1007.04
2022-10-16T01:22:56.458Z,1007.02
2022-10-16T01:23:56.460Z,1007.08
2022-10-16T01:24:56.473Z,1007.10
2022-10-16T01:25:56.446Z,1007.08
2022-10-16T02:08:21.982Z,1007.42
2022-10-16T02:09:21.993Z,1007.45
2022-10-16T02:10:22.007Z,1007.49
2022-10-16T02:11:22.560Z,1007.53
2022-10-16T02:12:21.974Z,1007.58
2022-10-16T02:13:21.976Z,1007.61
2022-10-16T02:14:22.003Z,1007.60
2022-10-16T02:15:21.993Z,1007.68
2022-10-16T02:16:21.975Z,1007.69
2022-10-16T02:17:21.986Z,1007.67
2022-10-16T02:18:21.986Z,1007.66
2022-10-16T02:19:21.993Z,1007.57
2022-10-16T02:20:21.989Z,1007.64
2022-10-16T02:21:21.980Z,1007.59
2022-10-16T02:22:21.978Z,1007.67
2022-10-16T02:23:21.998Z,1007.64
2022-10-16T02:24:21.990Z,1007.67
2022-10-16T02:25:21.988Z,1007.58
2022-10-16T02:26:21.997Z,1007.53
2022-10-16T02:27:21.985Z,1007.52
2022-10-16T02:28:22.015Z,1007.48
2022-10-16T02:29:21.995Z,1007.43
2022-10-16T02:30:22.004Z,1007.50
2022-10-16T02:31:22.009Z,1007.54
2022-10-16T02:32:22.021Z,1007.58
2022-10-16T02:33:21.990Z,1007.55
2022-10-16T02:34:21.995Z,1007.60
2022-10-16T02:35:22.006Z,1007.65
2022-10-16T02:36:21.994Z,1007.63
2022-10-16T02:37:21.996Z,1007.62
2022-10-16T02:38:22.006Z,1007.64
2022-10-16T02:39:21.996Z,1007.64
2022-10-16T02:40:24.493Z,1007.63
2022-10-16T02:41:22.024Z,1007.60
2022-10-16T02:42:22.003Z,1007.67
2022-10-16T02:43:22.015Z,1007.63
2022-10-16T02:44:22.022Z,1007.61
2022-10-16T02:45:22.018Z,1007.57
2022-10-16T02:46:22.019Z,1007.57
2022-10-16T02:47:22.016Z,1007.54
2022-10-16T02:48:22.028Z,1007.59
2022-10-16T02:49:22.035Z,1007.62
2022-10-16T02:50:22.028Z,1007.60
2022-10-16T02:51:22.029Z,1007.57
2022-10-16T02:52:22.024Z,1007.59
2022-10-16T02:53:22.018Z,1007.59
2022-10-16T02:54:22.019Z,1007.59
2022-10-16T02:55:22.016Z,1007.64
2022-10-16T02:56:22.038Z,1007.62
2022-10-16T02:57:22.018Z,1007.59
2022-10-16T02:58:22.037Z,1007.62
2022-10-16T02:59:22.036Z,1007.59
2022-10-16T03:00:22.046Z,1007.59
2022-10-16T03:01:22.128Z,1007.59
2022-10-16T03:02:22.036Z,1007.64
2022-10-16T03:03:22.030Z,1007.62
2022-10-16T03:04:22.065Z,1007.65
2022-10-16T03:06:22.054Z,1007.71
2022-10-16T03:07:22.048Z,1007.70
2022-10-16T03:08:22.056Z,1007.74
2022-10-16T03:09:22.047Z,1007.71
2022-10-16T03:10:22.049Z,1007.77
2022-10-16T03:11:22.049Z,1007.81
2022-10-16T03:12:22.038Z,1007.82
2022-10-16T03:13:22.046Z,1007.82
2022-10-16T03:14:22.122Z,1007.88
2022-10-16T03:15:22.085Z,1007.94
2022-10-16T03:16:22.049Z,1007.98
2022-10-16T03:17:22.054Z,1007.96
2022-10-16T03:18:22.046Z,1007.93
2022-10-16T03:19:22.057Z,1007.81
2022-10-16T03:20:22.042Z,1007.73
2022-10-16T03:21:22.074Z,1007.73
2022-10-16T03:22:22.054Z,1007.71
2022-10-16T03:23:22.092Z,1007.74
2022-10-16T03:24:22.064Z,1007.79
2022-10-16T03:25:22.068Z,1007.79
2022-10-16T03:26:22.083Z,1007.85
2022-10-16T03:27:22.051Z,1007.93
2022-10-16T03:28:22.105Z,1007.98
2022-10-16T03:29:22.061Z,1008.00
2022-10-16T03:30:22.053Z,1008.04
2022-10-16T03:31:22.075Z,1008.02
2022-10-16T03:32:22.168Z,1008.01
2022-10-16T03:33:22.059Z,1008.05
2022-10-16T03:34:22.068Z,1008.05
2022-10-16T03:35:22.066Z,1008.13
2022-10-16T03:36:22.076Z,1008.13
2022-10-16T03:37:22.087Z,1008.12
2022-10-16T03:38:22.096Z,1008.11
2022-10-16T03:39:22.072Z,1008.14
2022-10-16T03:40:22.078Z,1008.21
2022-10-16T03:41:22.061Z,1008.19
2022-10-16T03:42:22.063Z,1008.24
2022-10-16T03:43:22.076Z,1008.25
2022-10-16T03:44:22.080Z,1008.20
2022-10-16T03:45:22.089Z,1008.25
2022-10-16T03:46:22.078Z,1008.26
2022-10-16T03:47:22.078Z,1008.27
2022-10-16T03:48:22.069Z,1008.27
2022-10-16T03:49:22.095Z,1008.25
2022-10-16T03:50:22.069Z,1008.20
2022-10-16T03:51:22.101Z,1008.24
2022-10-16T03:52:22.090Z,1008.27
2022-10-16T03:53:22.079Z,1008.29
2022-10-16T03:54:22.085Z,1008.29
2022-10-16T03:55:22.086Z,1008.35
2022-10-16T03:56:22.084Z,1008.40
2022-10-16T03:57:22.105Z,1008.38
2022-10-16T03:58:22.077Z,1008.39
2022-10-16T03:59:22.100Z,1008.39
2022-10-16T04:00:22.093Z,1008.44
2022-10-16T04:01:22.114Z,1008.49
2022-10-16T04:02:22.101Z,1008.46
2022-10-16T04:03:22.090Z,1008.48
2022-10-16T04:04:22.087Z,1008.53
2022-10-16T04:05:22.094Z,1008.55
2022-10-16T04:06:22.085Z,1008.55
2022-10-16T04:07:22.094Z,1008.57
2022-10-16T04:08:22.108Z,1008.60
2022-10-16T04:09:22.116Z,1008.59
2022-10-16T04:10:22.086Z,1008.56
2022-10-16T04:11:22.101Z,1008.56
2022-10-16T04:12:22.102Z,1008.51
2022-10-16T04:13:22.128Z,1008.50
2022-10-16T04:14:22.108Z,1008.54
2022-10-16T04:15:22.110Z,1008.59
2022-10-16T04:16:22.092Z,1008.54
2022-10-16T04:17:22.100Z,1008.52
2022-10-16T04:18:22.134Z,1008.57
2022-10-16T04:19:22.110Z,1008.54
2022-10-16T04:20:22.098Z,1008.53
2022-10-16T04:21:22.102Z,1008.50
2022-10-16T04:22:22.148Z,1008.47
2022-10-16T04:23:22.129Z,1008.45
2022-10-16T04:24:22.108Z,1008.43
2022-10-16T04:25:22.120Z,1008.42
2022-10-16T04:26:22.105Z,1008.50
2022-10-16T04:27:22.137Z,1008.47
2022-10-16T04:28:22.137Z,1008.44
2022-10-16T04:29:22.132Z,1008.42
2022-10-16T04:30:22.130Z,1008.38
2022-10-16T04:31:22.128Z,1008.39
2022-10-16T04:32:22.126Z,1008.39
2022-10-16T04:33:22.123Z,1008.37
2022-10-16T04:34:22.142Z,1008.33
2022-10-16T04:35:22.118Z,1008.22
2022-10-16T04:36:24.306Z,1008.22
2022-10-16T04:37:22.115Z,1008.19
2022-10-16T04:38:22.115Z,1008.21
2022-10-16T04:39:22.135Z,1008.19
2022-10-16T04:40:22.125Z,1008.18
2022-10-16T04:41:22.117Z,1008.21
2022-10-16T04:42:22.124Z,1008.23
2022-10-16T04:43:22.168Z,1008.21
2022-10-16T04:44:22.157Z,1008.30
2022-10-16T04:45:22.153Z,1008.30
2022-10-16T04:46:22.120Z,1008.32
2022-10-16T04:47:22.141Z,1008.32
2022-10-16T04:48:22.131Z,1008.38
2022-10-16T04:49:22.131Z,1008.36
2022-10-16T04:50:22.125Z,1008.38
2022-10-16T04:51:22.135Z,1008.38
2022-10-16T04:52:22.177Z,1008.37
2022-10-16T04:53:22.126Z,1008.40
2022-10-16T04:54:22.144Z,1008.37
2022-10-16T04:55:22.128Z,1008.39
2022-10-16T04:56:22.158Z,1008.37
2022-10-16T04:57:22.141Z,1008.36
2022-10-16T04:58:22.132Z,1008.33
2022-10-16T04:59:22.148Z,1008.40
2022-10-16T05:00:22.156Z,1008.40
2022-10-16T05:01:22.140Z,1008.46
2022-10-16T05:02:22.174Z,1008.50
2022-10-16T05:03:22.255Z,1008.55
2022-10-16T05:04:22.138Z,1008.59
2022-10-16T05:05:22.143Z,1008.59
2022-10-16T05:06:22.132Z,1008.59
2022-10-16T05:07:22.169Z,1008.63
2022-10-16T05:08:22.142Z,1008.60
2022-10-16T05:09:22.162Z,1008.66
2022-10-16T05:10:22.147Z,1008.67
2022-10-16T05:11:22.160Z,1008.72
2022-10-16T05:12:22.145Z,1008.73
2022-10-16T05:13:22.169Z,1008.72
2022-10-16T05:14:22.161Z,1008.68
2022-10-16T05:15:22.162Z,1008.70
2022-10-16T05:16:22.158Z,1008.71
2022-10-16T05:17:22.140Z,1008.71
2022-10-16T05:18:22.165Z,1008.72
2022-10-16T05:19:27.338Z,1008.73
2022-10-16T05:20:22.174Z,1008.74
2022-10-16T05:21:22.166Z,1008.78
2022-10-16T05:22:22.142Z,1008.78
2022-10-16T05:23:22.146Z,1008.76
2022-10-16T05:24:22.173Z,1008.73
2022-10-16T05:25:22.147Z,1008.70
2022-10-16T05:26:22.170Z,1008.69
2022-10-16T05:27:22.155Z,1008.64
2022-10-16T05:28:22.194Z,1008.64
2022-10-16T05:29:22.173Z,1008.65
2022-10-16T05:30:22.161Z,1008.60
2022-10-16T05:31:22.159Z,1008.60
2022-10-16T05:32:22.166Z,1008.60
2022-10-16T05:33:22.162Z,1008.64
2022-10-16T05:34:22.163Z,1008.61
2022-10-16T05:35:22.160Z,1008.63
2022-10-16T05:36:22.197Z,1008.61
2022-10-16T05:37:22.177Z,1008.66
2022-10-16T05:38:22.171Z,1008.68
2022-10-16T05:39:22.175Z,1008.63
2022-10-16T05:40:22.164Z,1008.66
2022-10-16T05:41:22.155Z,1008.62
2022-10-16T05:42:22.171Z,1008.61
2022-10-16T05:43:22.160Z,1008.62
2022-10-16T05:44:22.223Z,1008.71
2022-10-16T05:45:22.165Z,1008.72
2022-10-16T05:46:22.161Z,1008.77
2022-10-16T05:47:22.170Z,1008.77
2022-10-16T05:48:22.166Z,1008.81
2022-10-16T05:49:22.178Z,1008.85
2022-10-16T05:50:22.165Z,1008.81
2022-10-16T05:51:22.171Z,1008.77
2022-10-16T05:52:22.163Z,1008.76
2022-10-16T05:53:22.178Z,1008.80
2022-10-16T05:54:22.178Z,1008.79
2022-10-16T05:55:22.164Z,1008.81
2022-10-16T05:56:22.167Z,1008.75
2022-10-16T05:57:22.173Z,1008.83
2022-10-16T05:58:22.172Z,1008.80
2022-10-16T05:59:22.185Z,1008.77
2022-10-16T06:00:22.171Z,1008.84
2022-10-16T06:01:22.246Z,1008.81
2022-10-16T06:02:22.170Z,1008.84
2022-10-16T06:03:22.162Z,1008.78
2022-10-16T06:04:22.183Z,1008.81
2022-10-16T06:05:22.162Z,1008.81
2022-10-16T06:06:22.174Z,1008.84
2022-10-16T06:07:22.181Z,1008.84
2022-10-16T06:08:22.178Z,1008.89
2022-10-16T06:09:22.182Z,1008.94
2022-10-16T06:10:22.182Z,1008.97
2022-10-16T06:11:22.179Z,1008.97
2022-10-16T06:12:22.181Z,1008.99
2022-10-16T06:13:22.173Z,1009.02
2022-10-16T06:14:22.166Z,1008.98
2022-10-16T06:15:22.186Z,1008.95
2022-10-16T06:16:22.171Z,1008.98
2022-10-16T06:17:22.193Z,1008.99
2022-10-16T06:18:29.223Z,1009.00
2022-10-16T06:19:22.169Z,1009.01
2022-10-16T06:20:22.208Z,1009.00
2022-10-16T06:21:22.209Z,1008.99
2022-10-16T06:22:22.169Z,1009.05
2022-10-16T06:23:22.182Z,1009.06
2022-10-16T06:24:22.180Z,1009.08
2022-10-16T06:25:22.168Z,1009.03
2022-10-16T06:26:22.178Z,1009.02
2022-10-16T06:27:22.182Z,1009.04
2022-10-16T06:28:22.221Z,1009.02
2022-10-16T06:29:22.166Z,1009.01
2022-10-16T06:30:22.186Z,1009.02
2022-10-16T06:31:22.214Z,1009.02
2022-10-16T06:32:22.171Z,1009.07
2022-10-16T06:33:22.166Z,1009.10
2022-10-16T06:34:22.168Z,1009.09
2022-10-16T06:35:22.184Z,1009.14
2022-10-16T06:36:22.168Z,1009.14
2022-10-16T06:37:22.198Z,1009.15
2022-10-16T06:38:22.188Z,1009.17
2022-10-16T06:39:22.181Z,1009.18
2022-10-16T06:40:22.171Z,1009.25
2022-10-16T06:41:22.172Z,1009.31
2022-10-16T06:42:22.175Z,1009.38
2022-10-16T06:43:22.199Z,1009.34
2022-10-16T06:44:22.195Z,1009.36
2022-10-16T06:45:22.174Z,1009.37
2022-10-16T06:46:22.197Z,1009.36
2022-10-16T06:47:22.179Z,1009.38
2022-10-16T06:48:22.187Z,1009.37
2022-10-16T06:49:22.192Z,1009.37
2022-10-16T06:50:22.198Z,1009.37
2022-10-16T06:51:22.176Z,1009.38
2022-10-16T06:52:22.200Z,1009.39
2022-10-16T06:53:22.207Z,1009.41
2022-10-16T06:54:22.190Z,1009.45
2022-10-16T06:55:22.178Z,1009.43
2022-10-16T06:56:22.189Z,1009.46
2022-10-16T06:57:22.176Z,1009.46
2022-10-16T06:58:22.192Z,1009.45
2022-10-16T06:59:22.202Z,1009.43
2022-10-16T07:00:22.184Z,1009.42
2022-10-16T07:01:22.204Z,1009.43
2022-10-16T07:02:22.183Z,1009.40
2022-10-16T07:03:22.189Z,1009.42
2022-10-16T07:04:22.190Z,1009.44
2022-10-16T07:05:22.193Z,1009.52
2022-10-16T07:06:22.187Z,1009.56
2022-10-16T07:07:22.193Z,1009.55
2022-10-16T07:08:22.201Z,1009.55
2022-10-16T07:09:22.228Z,1009.60
2022-10-16T07:10:22.197Z,1009.58
2022-10-16T07:11:22.196Z,1009.61
2022-10-16T07:12:22.207Z,1009.72
2022-10-16T07:13:22.211Z,1009.81
2022-10-16T07:14:22.201Z,1009.87
2022-10-16T07:15:22.198Z,1009.78
2022-10-16T07:16:22.201Z,1009.73
2022-10-16T07:17:22.221Z,1009.74
2022-10-16T07:18:22.263Z,1009.70
2022-10-16T07:19:22.197Z,1009.67
2022-10-16T07:20:22.195Z,1009.64
2022-10-16T07:21:22.214Z,1009.66
2022-10-16T07:22:22.217Z,1009.69
2022-10-16T07:23:22.205Z,1009.70
2022-10-16T07:24:22.222Z,1009.77
2022-10-16T07:25:22.206Z,1009.72
2022-10-16T07:26:22.210Z,1009.75
2022-10-16T07:27:22.195Z,1009.81
2022-10-16T07:28:22.286Z,1009.87
2022-10-16T07:29:22.234Z,1009.78
2022-10-16T07:30:22.211Z,1009.84
2022-10-16T07:31:22.213Z,1009.78
2022-10-16T07:32:22.218Z,1009.85
2022-10-16T07:33:22.227Z,1009.81
2022-10-16T07:34:22.228Z,1009.76
2022-10-16T07:35:22.209Z,1009.72
2022-10-16T07:36:22.224Z,1009.70
2022-10-16T07:37:22.243Z,1009.72
2022-10-16T07:38:22.216Z,1009.76
2022-10-16T07:39:22.233Z,1009.80
2022-10-16T07:40:22.218Z,1009.78
2022-10-16T07:41:22.211Z,1009.80
2022-10-16T07:42:22.216Z,1009.77
2022-10-16T07:43:22.232Z,1009.74
2022-10-16T07:44:22.233Z,1009.78
2022-10-16T07:45:22.242Z,1009.76
2022-10-16T07:46:22.225Z,1009.78
2022-10-16T07:47:22.232Z,1009.83
2022-10-16T07:48:22.224Z,1009.89
2022-10-16T07:49:22.243Z,1009.92
2022-10-16T07:50:22.280Z,1009.96
2022-10-16T07:51:22.256Z,1009.91
2022-10-16T07:52:22.230Z,1009.92
2022-10-16T07:53:24.855Z,1009.89
2022-10-16T07:54:22.231Z,1009.88
2022-10-16T07:55:22.235Z,1009.91
2022-10-16T07:56:22.268Z,1009.84
2022-10-16T07:57:22.245Z,1009.85
2022-10-16T07:58:22.259Z,1009.82
2022-10-16T08:01:00.526Z,1009.94
2022-10-16T08:01:53.866Z,1009.98
2022-10-16T08:02:53.826Z,1009.97
2022-10-16T08:03:53.951Z,1010.02
2022-10-16T08:04:53.838Z,1010.04
2022-10-16T08:05:53.832Z,1010.08
2022-10-16T08:06:53.833Z,1010.01
2022-10-16T08:07:53.856Z,1010.00
2022-10-16T08:08:53.832Z,1010.01
2022-10-16T08:09:53.847Z,1010.08
2022-10-16T08:10:53.850Z,1010.10
2022-10-16T08:11:54.314Z,1010.16
2022-10-16T08:12:53.849Z,1010.16
2022-10-16T08:13:53.840Z,1010.18
2022-10-16T08:14:53.878Z,1010.17
2022-10-16T08:15:53.848Z,1010.19
2022-10-16T08:16:53.845Z,1010.15
2022-10-16T08:17:53.863Z,1010.19
2022-10-16T08:18:53.858Z,1010.17
2022-10-16T08:19:53.844Z,1010.21
2022-10-16T08:20:53.865Z,1010.22
2022-10-16T08:21:53.866Z,1010.23
2022-10-16T08:22:53.866Z,1010.24
2022-10-16T08:23:58.072Z,1010.23
2022-10-16T08:24:53.853Z,1010.26
2022-10-16T08:25:53.861Z,1010.30
2022-10-16T08:26:53.868Z,1010.25
2022-10-16T08:27:53.859Z,1010.20
2022-10-16T08:28:53.911Z,1010.18
2022-10-16T08:29:53.879Z,1010.20
2022-10-16T08:30:53.864Z,1010.17
2022-10-16T08:31:53.885Z,1010.13
2022-10-16T08:32:53.866Z,1010.19
2022-10-16T08:33:53.915Z,1010.16
2022-10-16T08:34:53.879Z,1010.23
2022-10-16T08:35:53.868Z,1010.25
2022-10-16T08:36:53.878Z,1010.29
2022-10-16T08:37:53.895Z,1010.26
2022-10-16T08:38:53.880Z,1010.24
2022-10-16T08:39:53.902Z,1010.27
2022-10-16T08:40:53.951Z,1010.21
2022-10-16T08:41:53.896Z,1010.19
2022-10-16T08:42:53.886Z,1010.18
2022-10-16T08:43:53.880Z,1010.23
2022-10-16T08:44:53.911Z,1010.20
2022-10-16T08:45:53.894Z,1010.21
2022-10-16T08:46:53.893Z,1010.14
2022-10-16T08:47:53.915Z,1010.19
2022-10-16T08:48:53.905Z,1010.22
2022-10-16T08:49:53.901Z,1010.27
2022-10-16T08:50:53.895Z,1010.24
2022-10-16T08:51:53.897Z,1010.30
2022-10-16T08:52:53.911Z,1010.30
2022-10-16T08:53:54.016Z,1010.31
2022-10-16T08:54:53.912Z,1010.35
2022-10-16T08:55:53.931Z,1010.36
2022-10-16T08:56:53.911Z,1010.34
2022-10-16T08:57:54.023Z,1010.35
2022-10-16T08:58:56.631Z,1010.31
2022-10-16T08:59:53.922Z,1010.35
2022-10-16T09:00:53.997Z,1010.40
2022-10-16T09:01:53.935Z,1010.45
2022-10-16T09:02:53.975Z,1010.44
2022-10-16T09:03:53.951Z,1010.49
2022-10-16T09:04:56.649Z,1010.46
2022-10-16T09:05:53.921Z,1010.65
2022-10-16T09:06:53.926Z,1010.67
2022-10-16T09:07:54.085Z,1010.73
2022-10-16T09:08:53.945Z,1010.80
2022-10-16T09:09:53.947Z,1010.76
2022-10-16T09:10:53.934Z,1010.68
2022-10-16T09:11:53.950Z,1010.78
2022-10-16T09:12:53.957Z,1010.78
2022-10-16T09:13:53.964Z,1010.72
2022-10-16T09:14:53.950Z,1010.75
2022-10-16T09:15:53.946Z,1010.76
2022-10-16T09:16:53.953Z,1010.84
2022-10-16T09:17:53.963Z,1010.75
2022-10-16T09:18:53.967Z,1010.76
2022-10-16T09:19:53.987Z,1010.77
2022-10-16T09:20:53.977Z,1010.75
2022-10-16T09:21:53.972Z,1010.74
2022-10-16T09:22:53.985Z,1010.76
2022-10-16T09:23:54.004Z,1010.77
2022-10-16T09:24:53.989Z,1010.72
2022-10-16T09:25:53.993Z,1010.74
2022-10-16T09:26:53.999Z,1010.67
2022-10-16T09:27:53.987Z,1010.71
2022-10-16T09:28:54.059Z,1010.70
2022-10-16T09:29:58.798Z,1010.69
2022-10-16T09:30:54.020Z,1010.62
2022-10-16T09:31:54.012Z,1010.68
2022-10-16T09:32:54.008Z,1010.69
2022-10-16T09:33:54.019Z,1010.71
2022-10-16T09:34:54.041Z,1010.70
2022-10-16T09:35:54.027Z,1010.72
2022-10-16T09:36:54.018Z,1010.69
2022-10-16T09:37:54.045Z,1010.73
2022-10-16T09:38:54.034Z,1010.73
2022-10-16T09:39:54.062Z,1010.76
2022-10-16T09:40:58.950Z,1010.78
2022-10-16T09:41:54.064Z,1010.84
2022-10-16T09:42:54.045Z,1010.91
2022-10-16T09:43:54.040Z,1010.92
2022-10-16T09:44:54.076Z,1010.95
2022-10-16T09:45:54.054Z,1010.89
2022-10-16T09:46:54.054Z,1011.00
2022-10-16T09:47:57.021Z,1010.92
2022-10-16T09:48:54.069Z,1010.94
2022-10-16T09:49:54.065Z,1010.94
2022-10-16T09:50:54.076Z,1010.95
2022-10-16T09:51:54.078Z,1010.97
2022-10-16T09:52:54.066Z,1010.98
2022-10-16T09:54:54.096Z,1010.99
2022-10-16T09:55:54.103Z,1010.98
2022-10-16T09:56:54.108Z,1011.05
2022-10-16T09:57:54.100Z,1010.97
2022-10-16T09:58:54.110Z,1010.99
2022-10-16T09:59:54.119Z,1011.03
2022-10-16T10:00:54.097Z,1011.06
2022-10-16T10:01:54.133Z,1011.12
2022-10-16T10:03:54.123Z,1011.14
2022-10-16T10:04:54.126Z,1011.15
2022-10-16T10:05:57.298Z,1011.14
2022-10-16T10:06:54.130Z,1011.17
2022-10-16T10:07:54.135Z,1011.19
2022-10-16T10:08:54.126Z,1011.23
2022-10-16T10:09:54.132Z,1011.22
2022-10-16T10:10:54.125Z,1011.22
2022-10-16T10:11:54.204Z,1011.24
2022-10-16T10:12:54.952Z,1011.21
2022-10-16T10:13:54.146Z,1011.21
2022-10-16T10:14:54.156Z,1011.27
2022-10-16T10:15:54.160Z,1011.24
2022-10-16T10:16:54.158Z,1011.24
2022-10-16T10:17:54.176Z,1011.22
2022-10-16T10:18:54.179Z,1011.22
2022-10-16T10:19:54.170Z,1011.16
2022-10-16T10:20:54.338Z,1011.17
2022-10-16T10:21:54.172Z,1011.16
2022-10-16T10:22:54.185Z,1011.22
2022-10-16T10:23:54.186Z,1011.26
2022-10-16T10:24:54.188Z,1011.23
2022-10-16T10:25:54.205Z,1011.21
2022-10-16T10:26:54.209Z,1011.22
2022-10-16T10:27:54.207Z,1011.26
2022-10-16T10:28:54.227Z,1011.29
2022-10-16T10:29:54.210Z,1011.31
2022-10-16T10:30:54.202Z,1011.27
2022-10-16T10:31:54.211Z,1011.30
2022-10-16T10:32:54.222Z,1011.30
2022-10-16T10:33:54.218Z,1011.31
2022-10-16T10:34:56.625Z,1011.29
2022-10-16T10:35:54.239Z,1011.26
2022-10-16T10:36:54.254Z,1011.25
2022-10-16T10:37:54.254Z,1011.29
2022-10-16T10:38:54.245Z,1011.26
2022-10-16T10:39:54.246Z,1011.26
2022-10-16T10:40:54.252Z,1011.28
2022-10-16T10:41:54.249Z,1011.26
2022-10-16T10:42:54.248Z,1011.27
2022-10-16T10:43:54.269Z,1011.33
2022-10-16T10:44:54.262Z,1011.41
2022-10-16T10:45:54.264Z,1011.45
2022-10-16T10:46:54.262Z,1011.45
2022-10-16T10:47:54.302Z,1011.53
2022-10-16T10:48:54.271Z,1011.48
2022-10-16T10:49:54.274Z,1011.36
2022-10-16T10:50:54.290Z,1011.34
2022-10-16T10:51:54.283Z,1011.34
2022-10-16T10:52:54.301Z,1011.38
2022-10-16T10:53:54.310Z,1011.41
2022-10-16T10:54:54.303Z,1011.48
2022-10-16T10:55:54.316Z,1011.55
2022-10-16T10:56:54.322Z,1011.52
2022-10-16T10:57:54.310Z,1011.58
2022-10-16T10:58:54.332Z,1011.40
2022-10-16T10:59:54.318Z,1011.40
2022-10-16T11:00:54.323Z,1011.41
2022-10-16T11:01:54.348Z,1011.43
2022-10-16T11:02:54.353Z,1011.36
2022-10-16T11:03:58.331Z,1011.37
2022-10-16T11:04:54.354Z,1011.36
2022-10-16T11:05:54.356Z,1011.30
2022-10-16T11:06:54.350Z,1011.35
2022-10-16T11:07:54.366Z,1011.52
2022-10-16T11:08:57.574Z,1011.43
2022-10-16T11:09:54.378Z,1011.62
2022-10-16T11:10:54.392Z,1011.64
2022-10-16T11:11:54.374Z,1011.71
2022-10-16T11:12:54.385Z,1011.54
2022-10-16T11:13:54.392Z,1011.65
2022-10-16T11:14:54.402Z,1011.57
2022-10-16T11:15:54.424Z,1011.55
2022-10-16T11:16:54.410Z,1011.60
2022-10-16T11:17:54.416Z,1011.56
2022-10-16T11:18:54.412Z,1011.60
2022-10-16T11:19:54.446Z,1011.68
2022-10-16T11:20:54.421Z,1011.64
2022-10-16T11:21:54.498Z,1011.48
2022-10-16T11:22:54.509Z,1011.45
2022-10-16T11:23:54.534Z,1011.47
2022-10-16T11:24:54.608Z,1011.45
2022-10-16T11:25:54.490Z,1011.42
2022-10-16T11:26:54.518Z,1011.52
2022-10-16T11:27:54.529Z,1011.50
2022-10-16T11:28:54.543Z,1011.45
2022-10-16T11:29:54.498Z,1011.47
2022-10-16T11:30:54.503Z,1011.42
2022-10-16T11:31:54.491Z,1011.45
2022-10-16T11:32:54.498Z,1011.46
2022-10-16T11:33:54.549Z,1011.51
2022-10-16T11:34:54.511Z,1011.44
2022-10-16T11:35:54.555Z,1011.47
2022-10-16T11:36:54.516Z,1011.42
2022-10-16T11:37:54.525Z,1011.47
2022-10-16T11:38:54.535Z,1011.48
2022-10-16T11:39:54.563Z,1011.47
2022-10-16T11:40:54.568Z,1011.47
2022-10-16T11:41:54.551Z,1011.41
2022-10-16T11:42:54.544Z,1011.46
2022-10-16T11:43:54.565Z,1011.41
2022-10-16T11:44:54.573Z,1011.43
2022-10-16T11:45:54.583Z,1011.45
2022-10-16T11:47:00.650Z,1011.43
2022-10-16T11:47:59.284Z,1011.39
2022-10-16T11:48:54.601Z,1011.42
2022-10-16T11:49:54.589Z,1011.42
2022-10-16T11:50:54.588Z,1011.44
2022-10-16T11:51:54.622Z,1011.42
2022-10-16T11:52:54.600Z,1011.50
2022-10-16T11:53:54.617Z,1011.53
2022-10-16T11:54:54.701Z,1011.47
2022-10-16T11:55:54.617Z,1011.51
2022-10-16T11:56:54.625Z,1011.50
2022-10-16T11:57:54.633Z,1011.51
2022-10-16T11:58:54.641Z,1011.51
2022-10-16T11:59:54.645Z,1011.53
2022-10-16T12:00:54.659Z,1011.53
2022-10-16T12:01:54.661Z,1011.52
2022-10-16T12:02:54.689Z,1011.53
2022-10-16T12:03:54.713Z,1011.50
2022-10-16T12:04:54.653Z,1011.59
2022-10-16T12:05:55.817Z,1011.57
2022-10-16T12:06:54.672Z,1011.59
2022-10-16T12:07:54.666Z,1011.58
2022-10-16T12:08:54.713Z,1011.60
2022-10-16T12:09:54.722Z,1011.67
2022-10-16T12:10:54.730Z,1011.71
2022-10-16T12:11:54.714Z,1011.64
2022-10-16T12:12:54.764Z,1011.71
2022-10-16T12:13:54.699Z,1011.68
2022-10-16T12:15:15.906Z,1011.69
2022-10-16T12:15:59.156Z,1011.71
2022-10-16T12:16:54.717Z,1011.78
2022-10-16T12:17:54.733Z,1011.70
2022-10-16T12:18:54.731Z,1011.76
2022-10-16T12:19:54.768Z,1011.74
2022-10-16T12:20:54.734Z,1011.73
2022-10-16T12:21:54.741Z,1011.75
2022-10-16T12:22:54.777Z,1011.78
2022-10-16T12:23:54.748Z,1011.73
2022-10-16T12:24:54.753Z,1011.75
2022-10-16T12:25:54.752Z,1011.74
2022-10-16T12:26:54.749Z,1011.69
2022-10-16T12:27:54.756Z,1011.73
2022-10-16T12:28:54.901Z,1011.74
2022-10-16T12:29:54.828Z,1011.76
2022-10-16T12:30:54.772Z,1011.77
2022-10-16T12:31:58.223Z,1011.78
2022-10-16T12:32:55.063Z,1011.75
2022-10-16T12:33:54.802Z,1011.75
2022-10-16T12:34:54.794Z,1011.79
2022-10-16T12:35:54.806Z,1011.78
2022-10-16T12:36:54.801Z,1011.82
2022-10-16T12:37:54.800Z,1011.85
2022-10-16T12:38:54.820Z,1011.85
2022-10-16T12:39:54.836Z,1011.87
2022-10-16T12:40:54.828Z,1011.86
2022-10-16T12:41:55.175Z,1011.83
2022-10-16T12:42:54.839Z,1011.83
2022-10-16T12:43:54.836Z,1011.81
2022-10-16T12:44:54.868Z,1011.86
2022-10-16T12:45:54.851Z,1011.86
2022-10-16T12:46:55.523Z,1011.87
2022-10-16T12:47:54.965Z,1011.88
2022-10-16T12:49:06.629Z,1011.91
2022-10-16T12:49:55.521Z,1011.85
2022-10-16T12:50:54.872Z,1011.87
2022-10-16T12:51:54.930Z,1011.84
2022-10-16T12:52:54.909Z,1011.85